Time,TemperatureF,DewpointF,PressureIn,WindDirection,WindDirectionDegrees,WindSpeedMPH,WindSpeedGustMPH,Humidity,HourlyPrecipIn,Conditions,Clouds,dailyrainin,SolarRadiationWatts/m^2,SoftwareType,DateUTC
2013-10-15 00:00:00,46.0,42.0,-100.00,East,90,4.0,-999.0,85,-99.99,,,-99.99,0.000000,,2013-10-15 04:00:00,
2013-10-15 00:44:00,46.0,42.0,-100.00,East,90,4.0,-999.0,85,-99.99,,,-99.99,0.000000,,2013-10-15 04:44:00,
2013-10-15 00:54:00,46.0,42.0,-100.00,East,90,4.0,-999.0,85,-99.99,,,-99.99,0.000000,,2013-10-15 04:54:00,
2013-10-15 01:00:00,45.0,42.0,-100.00,East,90,3.0,-999.0,89,-99.99,,,-99.99,0.000000,,2013-10-15 05:00:00,
2013-10-15 01:42:00,45.0,42.0,-100.00,East,90,3.0,-999.0,89,-99.99,,,-99.99,0.000000,,2013-10-15 05:42:00,
2013-10-15 01:53:00,45.0,42.0,-100.00,East,90,3.0,-999.0,89,-99.99,,,-99.99,0.000000,,2013-10-15 05:53:00,
2013-10-15 02:00:00,43.0,41.0,-100.00,ESE,112,2.0,-999.0,91,-99.99,,,-99.99,0.000000,,2013-10-15 06:00:00,
2013-10-15 02:43:00,43.0,41.0,-100.00,ESE,112,2.0,-999.0,91,-99.99,,,-99.99,0.000000,,2013-10-15 06:43:00,
2013-10-15 02:52:00,43.0,41.0,-100.00,ESE,112,2.0,-999.0,91,-99.99,,,-99.99,0.000000,,2013-10-15 06:52:00,
2013-10-15 03:00:00,41.0,39.0,-100.00,ESE,112,0.0,-999.0,94,-99.99,,,-99.99,0.000000,,2013-10-15 07:00:00,
2013-10-15 03:42:00,41.0,39.0,-100.00,ESE,112,0.0,-999.0,94,-99.99,,,-99.99,0.000000,,2013-10-15 07:42:00,
2013-10-15 03:53:00,41.0,39.0,-100.00,ESE,112,0.0,-999.0,94,-99.99,,,-99.99,0.000000,,2013-10-15 07:53:00,
2013-10-15 04:00:00,38.0,38.0,-100.00,NE,45,0.0,-999.0,96,-99.99,,,-99.99,0.000000,,2013-10-15 08:00:00,
2013-10-15 04:42:00,38.0,38.0,-100.00,NE,45,0.0,-999.0,96,-99.99,,,-99.99,0.000000,,2013-10-15 08:42:00,
2013-10-15 04:52:00,38.0,38.0,-100.00,NE,45,0.0,-999.0,96,-99.99,,,-99.99,0.000000,,2013-10-15 08:52:00,
2013-10-15 05:00:00,37.0,37.0,-100.00,NE,45,0.0,-999.0,97,-99.99,,,-99.99,0.000000,,2013-10-15 09:00:00,
2013-10-15 05:43:00,37.0,37.0,-100.00,NE,45,0.0,-999.0,97,-99.99,,,-99.99,0.000000,,2013-10-15 09:43:00,
2013-10-15 05:53:00,37.0,37.0,-100.00,NE,45,0.0,-999.0,97,-99.99,,,-99.99,0.000000,,2013-10-15 09:53:00,
2013-10-15 06:00:00,37.0,37.0,-100.00,NNE,22,0.0,-999.0,98,-99.99,,,-99.99,0.000000,,2013-10-15 10:00:00,
2013-10-15 06:43:00,37.0,37.0,-100.00,NNE,22,0.0,-999.0,98,-99.99,,,-99.99,0.000000,,2013-10-15 10:43:00,
2013-10-15 06:53:00,37.0,37.0,-100.00,NNE,22,0.0,-999.0,98,-99.99,,,-99.99,0.000000,,2013-10-15 10:53:00,
2013-10-15 07:00:00,38.0,37.0,-100.00,NNE,22,0.0,-999.0,98,-99.99,,,-99.99,0.000000,,2013-10-15 11:00:00,
2013-10-15 07:42:00,38.0,37.0,-100.00,NNE,22,0.0,-999.0,98,-99.99,,,-99.99,0.000000,,2013-10-15 11:42:00,
2013-10-15 07:53:00,38.0,37.0,-100.00,NNE,22,0.0,-999.0,98,-99.99,,,-99.99,0.000000,,2013-10-15 11:53:00,
2013-10-15 08:00:00,39.0,39.0,-100.00,NE,45,1.0,-999.0,98,-99.99,,,-99.99,1.160000,,2013-10-15 12:00:00,
2013-10-15 08:42:00,39.0,39.0,-100.00,NE,45,1.0,-999.0,98,-99.99,,,-99.99,1.160000,,2013-10-15 12:42:00,
2013-10-15 08:52:00,39.0,39.0,-100.00,NE,45,1.0,-999.0,98,-99.99,,,-99.99,1.160000,,2013-10-15 12:52:00,
2013-10-15 09:00:00,41.0,41.0,-100.00,NE,45,1.0,-999.0,98,-99.99,,,-99.99,18.559999,,2013-10-15 13:00:00,
2013-10-15 09:42:00,41.0,41.0,-100.00,NE,45,1.0,-999.0,98,-99.99,,,-99.99,18.559999,,2013-10-15 13:42:00,
2013-10-15 09:52:00,41.0,41.0,-100.00,NE,45,1.0,-999.0,98,-99.99,,,-99.99,18.559999,,2013-10-15 13:52:00,
2013-10-15 10:00:00,44.0,43.0,-100.00,ENE,67,1.0,-999.0,98,-99.99,,,-99.99,95.120003,,2013-10-15 14:00:00,
2013-10-15 10:42:00,44.0,43.0,-100.00,ENE,67,1.0,-999.0,98,-99.99,,,-99.99,95.120003,,2013-10-15 14:42:00,
2013-10-15 10:52:00,44.0,43.0,-100.00,ENE,67,1.0,-999.0,98,-99.99,,,-99.99,95.120003,,2013-10-15 14:52:00,
2013-10-15 11:00:00,48.0,48.0,-100.00,ESE,112,3.0,-999.0,98,-99.99,,,-99.99,178.639999,,2013-10-15 15:00:00,
2013-10-15 11:44:00,48.0,48.0,-100.00,ESE,112,3.0,-999.0,98,-99.99,,,-99.99,178.639999,,2013-10-15 15:44:00,
2013-10-15 11:53:00,48.0,48.0,-100.00,ESE,112,3.0,-999.0,98,-99.99,,,-99.99,178.639999,,2013-10-15 15:53:00,
2013-10-15 12:00:00,53.0,49.0,-100.00,SE,135,5.0,-999.0,84,-99.99,,,-99.99,262.160004,,2013-10-15 16:00:00,
2013-10-15 12:43:00,53.0,49.0,-100.00,SE,135,5.0,-999.0,84,-99.99,,,-99.99,262.160004,,2013-10-15 16:43:00,
2013-10-15 12:53:00,53.0,49.0,-100.00,SE,135,5.0,-999.0,84,-99.99,,,-99.99,262.160004,,2013-10-15 16:53:00,
2013-10-15 13:00:00,57.0,51.0,-100.00,SE,135,5.0,-999.0,79,-99.99,,,-99.99,307.399994,,2013-10-15 17:00:00,
2013-10-15 13:43:00,57.0,51.0,-100.00,SE,135,5.0,-999.0,79,-99.99,,,-99.99,307.399994,,2013-10-15 17:43:00,
2013-10-15 13:53:00,57.0,51.0,-100.00,SE,135,5.0,-999.0,79,-99.99,,,-99.99,307.399994,,2013-10-15 17:53:00,
2013-10-15 14:00:00,61.0,54.0,-100.00,SE,135,7.0,-999.0,75,-99.99,,,-99.99,338.720001,,2013-10-15 18:00:00,
2013-10-15 14:42:00,61.0,54.0,-100.00,SE,135,7.0,-999.0,75,-99.99,,,-99.99,338.720001,,2013-10-15 18:42:00,
2013-10-15 14:52:00,61.0,54.0,-100.00,SE,135,7.0,-999.0,75,-99.99,,,-99.99,338.720001,,2013-10-15 18:52:00,
2013-10-15 15:00:00,62.0,55.0,-100.00,SE,135,6.0,-999.0,76,-99.99,,,-99.99,223.880005,,2013-10-15 19:00:00,
2013-10-15 15:42:00,62.0,55.0,-100.00,SE,135,6.0,-999.0,76,-99.99,,,-99.99,223.880005,,2013-10-15 19:42:00,
2013-10-15 15:52:00,62.0,55.0,-100.00,SE,135,6.0,-999.0,76,-99.99,,,-99.99,223.880005,,2013-10-15 19:52:00,
2013-10-15 16:00:00,64.0,56.0,-100.00,SE,135,8.0,-999.0,74,-99.99,,,-99.99,265.640015,,2013-10-15 20:00:00,
2013-10-15 16:42:00,64.0,56.0,-100.00,SE,135,8.0,-999.0,74,-99.99,,,-99.99,265.640015,,2013-10-15 20:42:00,
2013-10-15 16:52:00,64.0,56.0,-100.00,SE,135,8.0,-999.0,74,-99.99,,,-99.99,265.640015,,2013-10-15 20:52:00,
2013-10-15 17:00:00,63.0,56.0,-100.00,SE,135,6.0,-999.0,76,-99.99,,,-99.99,74.239998,,2013-10-15 21:00:00,
2013-10-15 17:44:00,63.0,56.0,-100.00,SE,135,6.0,-999.0,76,-99.99,,,-99.99,74.239998,,2013-10-15 21:44:00,
2013-10-15 17:54:00,63.0,56.0,-100.00,SE,135,6.0,-999.0,76,-99.99,,,-99.99,74.239998,,2013-10-15 21:54:00,
2013-10-15 18:00:00,61.0,56.0,-100.00,SSE,157,6.0,-999.0,82,0.02,,,-99.99,17.400000,,2013-10-15 22:00:00,
2013-10-15 18:43:00,61.0,56.0,-100.00,SSE,157,6.0,-999.0,82,0.02,,,-99.99,17.400000,,2013-10-15 22:43:00,
2013-10-15 18:54:00,61.0,56.0,-100.00,SSE,157,6.0,-999.0,82,0.02,,,-99.99,17.400000,,2013-10-15 22:54:00,
2013-10-15 19:00:00,59.0,57.0,-100.00,SSE,157,5.0,-999.0,95,0.18,,,-99.99,2.320000,,2013-10-15 23:00:00,
2013-10-15 19:43:00,59.0,57.0,-100.00,SSE,157,5.0,-999.0,95,0.18,,,-99.99,2.320000,,2013-10-15 23:43:00,
2013-10-15 19:53:00,59.0,57.0,-100.00,SSE,157,5.0,-999.0,95,0.18,,,-99.99,2.320000,,2013-10-15 23:53:00,
2013-10-15 20:00:00,58.0,57.0,-100.00,SSE,157,5.0,-999.0,97,0.14,,,-99.99,0.000000,,2013-10-16 00:00:00,
2013-10-15 20:42:00,58.0,57.0,-100.00,SSE,157,5.0,-999.0,97,0.14,,,-99.99,0.000000,,2013-10-16 00:42:00,
2013-10-15 20:52:00,58.0,57.0,-100.00,SSE,157,5.0,-999.0,97,0.14,,,-99.99,0.000000,,2013-10-16 00:52:00,
2013-10-15 21:00:00,58.0,58.0,-100.00,South,180,5.0,-999.0,98,0.01,,,-99.99,0.000000,,2013-10-16 01:00:00,
2013-10-15 21:42:00,58.0,58.0,-100.00,South,180,5.0,-999.0,98,0.01,,,-99.99,0.000000,,2013-10-16 01:42:00,
2013-10-15 21:53:00,58.0,58.0,-100.00,South,180,5.0,-999.0,98,0.01,,,-99.99,0.000000,,2013-10-16 01:53:00,
2013-10-15 22:00:00,59.0,58.0,-100.00,South,180,3.0,-999.0,98,0.02,,,-99.99,0.000000,,2013-10-16 02:00:00,
2013-10-15 22:43:00,59.0,58.0,-100.00,South,180,3.0,-999.0,98,0.02,,,-99.99,0.000000,,2013-10-16 02:43:00,
2013-10-15 22:52:00,59.0,58.0,-100.00,South,180,3.0,-999.0,98,0.02,,,-99.99,0.000000,,2013-10-16 02:52:00,
2013-10-15 23:00:00,59.0,59.0,-100.00,SSW,202,4.0,-999.0,98,-99.99,,,-99.99,0.000000,,2013-10-16 03:00:00,
2013-10-15 23:45:00,59.0,59.0,-100.00,SSW,202,4.0,-999.0,98,-99.99,,,-99.99,0.000000,,2013-10-16 03:45:00,
2013-10-15 23:55:00,59.0,59.0,-100.00,SSW,202,4.0,-999.0,98,-99.99,,,-99.99,0.000000,,2013-10-16 03:55:00,